createdAt,value
2022-12-27T15:53:05.179Z,6.80
2022-12-27T15:55:52.500Z,6.70
2022-12-27T15:58:23.999Z,6.90
2022-12-27T16:01:27.919Z,7.00
2022-12-27T16:03:58.456Z,7.10
2022-12-27T16:06:56.556Z,6.90
2022-12-27T16:09:38.874Z,7.20
2022-12-27T16:12:10.883Z,7.00
2022-12-27T16:14:40.919Z,7.00
2022-12-27T16:17:30.191Z,7.10
2022-12-27T16:20:15.556Z,6.90
2022-12-27T16:22:51.054Z,7.20
2022-12-27T16:25:38.746Z,7.20
2022-12-27T16:28:10.275Z,7.30
2022-12-27T16:30:44.919Z,7.10
2022-12-27T16:33:37.637Z,7.20
2022-12-27T16:36:15.524Z,7.20
2022-12-27T16:38:49.475Z,7.30
2022-12-27T16:41:35.622Z,7.20
2022-12-27T16:44:18.709Z,7.30
2022-12-27T16:47:03.270Z,7.20
2022-12-27T16:49:55.564Z,7.10
2022-12-27T16:52:47.332Z,7.20
2022-12-27T16:55:30.609Z,7.10
2022-12-27T16:58:24.988Z,7.30
2022-12-27T17:00:54.169Z,7.30
2022-12-27T17:03:42.811Z,7.00
2022-12-27T17:06:47.760Z,7.20
2022-12-27T17:09:44.011Z,7.10
2022-12-27T17:12:20.341Z,7.20
2022-12-27T17:14:52.198Z,6.90
2022-12-27T17:17:23.610Z,6.90
2022-12-27T17:19:57.955Z,7.00
2022-12-27T17:22:34.277Z,7.00
2022-12-27T17:25:04.506Z,7.20
2022-12-27T17:27:45.504Z,7.10
2022-12-27T17:30:19.982Z,6.90
2022-12-27T17:33:12.743Z,7.20
2022-12-27T17:35:58.792Z,6.90
2022-12-27T17:38:36.331Z,6.90
2022-12-27T17:41:16.047Z,6.60
2022-12-27T17:44:12.631Z,6.90
2022-12-27T17:46:51.510Z,6.90
2022-12-27T17:49:26.060Z,6.80
2022-12-27T17:52:14.036Z,6.60
2022-12-27T17:54:59.703Z,6.60
2022-12-27T17:57:45.213Z,6.60
2022-12-27T18:00:23.566Z,6.60
2022-12-27T18:02:55.339Z,6.40
2022-12-27T18:05:27.930Z,6.50
2022-12-27T18:08:02.844Z,6.60
2022-12-27T18:10:31.631Z,6.60
2022-12-27T18:13:02.328Z,6.60
2022-12-27T18:15:34.133Z,6.50
2022-12-27T18:18:06.045Z,6.40
2022-12-27T18:20:37.378Z,5.80
2022-12-27T18:23:16.193Z,6.40
2022-12-27T18:26:06.695Z,6.40
2022-12-27T18:28:37.227Z,6.30
2022-12-27T18:31:12.602Z,6.40
2022-12-27T18:33:47.328Z,6.40
2022-12-27T18:36:21.264Z,6.30
2022-12-27T18:38:56.354Z,6.40
2022-12-27T18:41:25.427Z,6.30
2022-12-27T18:43:59.630Z,6.10
2022-12-27T18:46:30.530Z,6.40
2022-12-27T18:49:00.760Z,6.10
2022-12-27T18:51:34.066Z,6.10
2022-12-27T18:54:02.496Z,6.00
2022-12-27T18:56:32.648Z,5.90
2022-12-27T18:59:06.730Z,6.10
2022-12-27T19:01:41.618Z,5.60
2022-12-27T19:04:28.353Z,5.90
2022-12-27T19:06:57.895Z,5.80
2022-12-27T19:09:28.552Z,5.90
2022-12-27T19:11:59.332Z,6.00
2022-12-27T19:14:37.079Z,6.00
2022-12-27T19:17:10.651Z,5.80
2022-12-27T19:19:40.430Z,5.80
2022-12-27T19:22:42.441Z,5.50
2022-12-27T19:25:22.134Z,5.50
2022-12-27T19:28:05.639Z,5.60
2022-12-27T19:30:37.444Z,5.40
2022-12-27T19:33:10.246Z,5.70
2022-12-27T19:35:41.039Z,5.50
2022-12-27T19:38:18.139Z,5.80
2022-12-27T19:40:46.648Z,5.60
2022-12-27T19:43:15.584Z,5.60
2022-12-27T19:45:43.481Z,5.60
2022-12-27T19:48:12.079Z,5.50
2022-12-27T19:50:46.447Z,5.70
2022-12-27T19:53:17.127Z,5.80
2022-12-27T19:55:44.946Z,5.50
2022-12-27T19:58:19.762Z,5.50
2022-12-27T20:00:47.901Z,5.70
2022-12-27T20:03:15.996Z,5.80
2022-12-27T20:06:11.484Z,5.70
2022-12-27T20:08:37.352Z,5.90
2022-12-27T20:11:07.346Z,5.80
2022-12-27T20:13:35.717Z,5.80
2022-12-27T20:16:03.975Z,5.50
2022-12-27T20:18:31.752Z,5.70
2022-12-27T20:21:01.014Z,5.70
2022-12-27T20:23:29.161Z,5.60
2022-12-27T20:25:58.366Z,5.80
2022-12-27T20:28:27.115Z,5.80
2022-12-27T20:30:55.021Z,5.90
2022-12-27T20:33:22.899Z,5.80
2022-12-27T20:35:57.560Z,5.90
2022-12-27T20:38:26.942Z,5.50
2022-12-27T20:40:55.309Z,5.60
2022-12-27T20:43:23.134Z,5.70
2022-12-27T20:45:51.060Z,5.80
2022-12-27T20:48:18.891Z,5.70
2022-12-27T20:50:46.775Z,5.70
2022-12-27T20:53:14.612Z,6.00
2022-12-27T20:55:44.094Z,5.80
2022-12-27T20:58:12.050Z,5.70
2022-12-27T21:00:41.420Z,5.80
2022-12-27T21:03:10.429Z,5.50
